createdAt,value
2022-08-25T00:01:55.303Z,101894.53
2022-08-25T00:04:23.930Z,101900.78
2022-08-25T00:06:51.274Z,101899.31
2022-08-25T00:09:20.770Z,101893.81
2022-08-25T00:11:49.221Z,101892.44
2022-08-25T00:14:19.875Z,101885.22
2022-08-25T00:16:47.291Z,101892.28
2022-08-25T00:19:18.274Z,101887.28
2022-08-25T00:21:45.979Z,101888.97
2022-08-25T00:24:14.635Z,101885.53
2022-08-25T00:26:43.809Z,101870.03
2022-08-25T00:29:11.166Z,101883.28
2022-08-25T00:31:39.201Z,101881.41
2022-08-25T00:34:14.490Z,101877.22
2022-08-25T00:36:41.857Z,101878.34
2022-08-25T00:39:10.206Z,101880.13
2022-08-25T00:41:38.385Z,101884.13
2022-08-25T00:44:08.252Z,101880.94
2022-08-25T00:46:38.863Z,101887.28
2022-08-25T00:49:24.571Z,101878.28
2022-08-25T00:51:55.600Z,101880.13
2022-08-25T00:54:25.701Z,101879.88
2022-08-25T00:56:53.130Z,101874.75
2022-08-25T00:59:22.558Z,101880.34
2022-08-25T01:01:51.198Z,101879.59
2022-08-25T01:04:18.306Z,101879.03
2022-08-25T01:06:47.622Z,101879.13
2022-08-25T01:09:14.776Z,101877.84
2022-08-25T01:11:44.372Z,101880.72
2022-08-25T01:14:13.409Z,101879.22
2022-08-25T01:16:41.481Z,101878.56
2022-08-25T01:19:09.818Z,101879.09
2022-08-25T01:21:48.451Z,101867.09
2022-08-25T01:24:40.960Z,101868.47
2022-08-25T01:27:08.932Z,101868.72
2022-08-25T01:29:36.850Z,101864.38
2022-08-25T01:32:07.772Z,101867.22
2022-08-25T01:34:37.281Z,101868.63
2022-08-25T01:37:04.823Z,101865.44
2022-08-25T01:39:38.762Z,101868.41
2022-08-25T01:42:13.273Z,101871.19
2022-08-25T01:44:45.378Z,101872.31
2022-08-25T01:47:13.790Z,101868.00
2022-08-25T01:49:40.495Z,101862.97
2022-08-25T01:52:23.660Z,101857.22
2022-08-25T01:54:50.282Z,101862.75
2022-08-25T01:57:17.654Z,101868.16
2022-08-25T01:59:44.931Z,101857.88
2022-08-25T02:02:11.531Z,101854.69
2022-08-25T02:04:38.562Z,101861.88
2022-08-25T02:07:08.806Z,101866.91
2022-08-25T02:09:36.563Z,101868.00
2022-08-25T02:12:04.367Z,101865.22
2022-08-25T02:14:31.012Z,101864.38
2022-08-25T02:16:57.751Z,101863.78
2022-08-25T02:19:25.960Z,101863.03
2022-08-25T02:21:52.799Z,101861.38
2022-08-25T02:24:19.584Z,101864.81
2022-08-25T02:26:46.245Z,101863.97
2022-08-25T02:29:12.894Z,101864.00
2022-08-25T02:31:39.730Z,101863.09
2022-08-25T02:34:07.146Z,101868.25
2022-08-25T02:36:33.800Z,101860.75
2022-08-25T02:39:00.946Z,101855.78
2022-08-25T02:41:31.335Z,101851.50
2022-08-25T02:43:59.509Z,101854.38
2022-08-25T02:46:26.270Z,101850.09
2022-08-25T02:48:53.353Z,101851.09
2022-08-25T02:51:22.190Z,101845.06
2022-08-25T02:53:49.050Z,101845.91
2022-08-25T02:56:18.319Z,101844.72
2022-08-25T02:58:45.977Z,101842.88
2022-08-25T03:01:13.270Z,101839.34
2022-08-25T03:03:43.513Z,101839.34
2022-08-25T03:06:11.097Z,101844.56
2022-08-25T03:08:37.983Z,101837.50
2022-08-25T03:11:05.582Z,101829.69
2022-08-25T03:13:32.943Z,101833.28
2022-08-25T03:16:00.905Z,101830.09
2022-08-25T03:18:29.512Z,101822.41
2022-08-25T03:20:56.072Z,101820.56
2022-08-25T03:23:22.650Z,101821.47
2022-08-25T03:26:08.027Z,101822.41
2022-08-25T03:28:34.687Z,101823.16
2022-08-25T03:31:01.451Z,101814.69
2022-08-25T03:33:29.582Z,101814.97
2022-08-25T03:35:57.902Z,101815.00
2022-08-25T03:38:25.434Z,101814.19
2022-08-25T03:40:52.666Z,101814.50
2022-08-25T03:43:19.210Z,101809.31
2022-08-25T03:45:46.431Z,101809.50
2022-08-25T03:48:14.218Z,101798.91
2022-08-25T03:50:50.719Z,101806.06
2022-08-25T03:53:19.885Z,101793.97
2022-08-25T03:55:46.626Z,101802.03
2022-08-25T03:58:14.144Z,101791.97
2022-08-25T04:00:40.917Z,101802.78
2022-08-25T04:03:08.060Z,101799.78
2022-08-25T04:05:35.316Z,101793.06
2022-08-25T04:08:02.141Z,101796.75
2022-08-25T04:10:29.222Z,101791.81
2022-08-25T04:12:56.181Z,101791.97
2022-08-25T04:15:22.823Z,101798.19
2022-08-25T04:17:51.131Z,101787.00
2022-08-25T04:20:18.952Z,101786.19
2022-08-25T04:22:45.526Z,101783.50
2022-08-25T04:25:12.883Z,101783.63
2022-08-25T04:27:44.919Z,101769.91
2022-08-25T04:30:12.020Z,101784.88
2022-08-25T04:32:38.482Z,101777.41
2022-08-25T04:35:05.490Z,101776.78
2022-08-25T04:37:33.385Z,101782.06
2022-08-25T04:40:00.216Z,101780.56
2022-08-25T04:42:27.303Z,101778.28
2022-08-25T04:44:54.558Z,101779.13
2022-08-25T04:47:22.381Z,101773.94
2022-08-25T04:49:48.884Z,101774.03
2022-08-25T04:52:15.516Z,101789.75
2022-08-25T04:54:42.503Z,101788.25
2022-08-25T04:57:10.778Z,101784.72
2022-08-25T04:59:37.307Z,101789.31
2022-08-25T05:02:05.397Z,101781.69
2022-08-25T05:04:35.213Z,101781.53
2022-08-25T05:07:02.671Z,101781.84
2022-08-25T05:09:29.365Z,101782.84
2022-08-25T05:11:59.762Z,101781.09
2022-08-25T05:14:26.839Z,101779.22
2022-08-25T05:16:55.467Z,101782.91
2022-08-25T05:19:23.957Z,101789.78
2022-08-25T05:21:51.163Z,101791.31
2022-08-25T05:24:18.098Z,101786.72
2022-08-25T05:26:44.843Z,101802.69
2022-08-25T05:29:11.770Z,101786.53
2022-08-25T05:31:42.328Z,101791.25
2022-08-25T05:34:12.080Z,101796.09
2022-08-25T05:36:43.370Z,101801.16
2022-08-25T05:39:10.880Z,101798.41
2022-08-25T05:41:38.236Z,101806.63
2022-08-25T05:44:05.021Z,101809.72
2022-08-25T05:46:32.047Z,101808.31
2022-08-25T05:48:59.032Z,101801.78
2022-08-25T05:51:26.275Z,101813.38
2022-08-25T05:53:52.943Z,101806.91
2022-08-25T05:56:23.013Z,101804.59
2022-08-25T05:58:50.234Z,101808.47
2022-08-25T06:01:43.493Z,101802.84
2022-08-25T06:04:12.112Z,101811.13
2022-08-25T06:06:40.669Z,101803.50
2022-08-25T06:09:09.414Z,101811.41
2022-08-25T06:11:39.996Z,101806.34
2022-08-25T06:14:08.205Z,101810.66
2022-08-25T06:16:34.897Z,101809.09
2022-08-25T06:19:01.439Z,101813.09
2022-08-25T06:21:28.106Z,101815.03
2022-08-25T06:23:54.635Z,101820.50
2022-08-25T06:26:21.634Z,101820.03
2022-08-25T06:28:51.868Z,101815.53
2022-08-25T06:31:19.736Z,101818.81
2022-08-25T06:33:46.716Z,101814.97
2022-08-25T06:36:15.256Z,101820.56
2022-08-25T06:38:41.795Z,101819.34
2022-08-25T06:41:12.403Z,101816.63
2022-08-25T06:43:43.766Z,101814.13
2022-08-25T06:46:34.726Z,101811.16
2022-08-25T06:49:05.053Z,101812.41
2022-08-25T06:51:31.557Z,101816.22
2022-08-25T06:53:57.988Z,101803.44
2022-08-25T06:56:24.634Z,101806.38
2022-08-25T06:58:53.261Z,101808.53
2022-08-25T07:01:25.811Z,101811.59
2022-08-25T07:03:57.326Z,101804.09
2022-08-25T07:06:25.348Z,101803.41
2022-08-25T07:08:51.879Z,101809.38
2022-08-25T07:11:20.952Z,101802.69
2022-08-25T07:13:48.042Z,101803.66
2022-08-25T07:16:18.350Z,101801.94
2022-08-25T07:18:45.512Z,101813.34
2022-08-25T07:21:13.696Z,101809.75
2022-08-25T07:23:41.854Z,101809.94
2022-08-25T07:26:34.010Z,101810.78
2022-08-25T07:29:03.019Z,101813.16
2022-08-25T07:31:30.180Z,101811.38
2022-08-25T07:34:15.368Z,101811.44
2022-08-25T07:36:43.703Z,101805.75
2022-08-25T07:39:10.651Z,101802.09
2022-08-25T07:41:39.495Z,101798.31
2022-08-25T07:44:06.757Z,101808.97
2022-08-25T07:46:35.584Z,101804.94
2022-08-25T07:49:02.387Z,101807.13
2022-08-25T07:51:28.945Z,101801.09
2022-08-25T07:53:55.506Z,101798.63
2022-08-25T07:56:24.533Z,101787.47
2022-08-25T07:58:51.293Z,101794.75
2022-08-25T08:01:23.376Z,101792.41
2022-08-25T08:03:51.633Z,101789.94
2022-08-25T08:06:23.521Z,101788.16
2022-08-25T08:08:54.538Z,101791.03
2022-08-25T08:11:34.445Z,101786.75
2022-08-25T08:14:01.950Z,101782.38
2022-08-25T08:16:31.345Z,101787.59
2022-08-25T08:18:59.950Z,101779.47
2022-08-25T08:21:30.356Z,101785.66
2022-08-25T08:23:59.015Z,101782.06
2022-08-25T08:26:48.246Z,101767.97
2022-08-25T08:29:15.380Z,101778.09
2022-08-25T08:31:48.755Z,101773.97
2022-08-25T08:34:15.850Z,101780.63
2022-08-25T08:36:42.535Z,101784.72
2022-08-25T08:39:12.107Z,101775.25
2022-08-25T08:42:16.794Z,101778.81
2022-08-25T08:44:56.065Z,101766.66
2022-08-25T08:47:57.802Z,101770.19
2022-08-25T08:50:54.363Z,101775.09
2022-08-25T08:53:34.101Z,101765.47
2022-08-25T08:56:11.708Z,101765.25
2022-08-25T08:58:50.256Z,101756.47
2022-08-25T09:01:26.674Z,101764.38
2022-08-25T09:04:14.675Z,101764.28
2022-08-25T09:06:48.155Z,101754.47
2022-08-25T09:09:24.921Z,101758.91
2022-08-25T09:12:09.957Z,101751.56
2022-08-25T09:14:43.043Z,101758.25
2022-08-25T09:17:54.513Z,101754.66
2022-08-25T09:20:41.099Z,101750.09
2022-08-25T09:23:20.382Z,101749.09
2022-08-25T09:26:05.607Z,101754.06
2022-08-25T09:28:55.399Z,101751.97
2022-08-25T09:31:35.722Z,101753.63
2022-08-25T09:34:05.806Z,101750.94
2022-08-25T09:36:37.396Z,101749.22
2022-08-25T09:39:05.967Z,101751.38
2022-08-25T09:41:42.174Z,101746.09
2022-08-25T09:44:31.839Z,101743.31
2022-08-25T09:47:18.079Z,101739.78
2022-08-25T09:49:46.014Z,101739.50
2022-08-25T09:52:33.166Z,101741.91
2022-08-25T09:55:05.824Z,101739.31
2022-08-25T09:57:44.407Z,101731.19
2022-08-25T10:00:13.242Z,101723.16
2022-08-25T10:02:42.680Z,101721.53
2022-08-25T10:05:35.145Z,101719.19
2022-08-25T10:08:11.165Z,101721.50
2022-08-25T10:10:45.997Z,101727.84
2022-08-25T10:13:17.478Z,101717.81
2022-08-25T10:16:05.053Z,101708.44
2022-08-25T10:19:01.981Z,101708.53
2022-08-25T10:21:28.528Z,101702.63
2022-08-25T10:23:56.386Z,101697.53
2022-08-25T10:26:49.949Z,101691.25
2022-08-25T10:29:38.094Z,101689.28
2022-08-25T10:32:15.677Z,101685.03
2022-08-25T10:34:54.617Z,101684.53
2022-08-25T10:37:28.589Z,101676.59
2022-08-25T10:40:23.250Z,101682.91
2022-08-25T10:43:27.291Z,101670.47
2022-08-25T10:46:12.230Z,101672.59
2022-08-25T10:48:57.215Z,101660.00
2022-08-25T10:51:52.714Z,101656.47
2022-08-25T10:54:42.404Z,101652.94
2022-08-25T10:57:21.329Z,101647.66
2022-08-25T11:00:13.090Z,101649.78
2022-08-25T11:02:58.723Z,101645.44
2022-08-25T11:05:27.970Z,101642.97
2022-08-25T11:08:03.513Z,101638.47
2022-08-25T11:10:48.468Z,101627.53
2022-08-25T11:13:24.726Z,101636.56
2022-08-25T11:16:17.473Z,101632.16
2022-08-25T11:18:51.535Z,101625.78
2022-08-25T11:21:41.411Z,101630.56
2022-08-25T11:24:18.593Z,101626.44
2022-08-25T11:26:54.575Z,101617.13
2022-08-25T11:29:22.114Z,101620.59
2022-08-25T11:31:53.725Z,101617.75
2022-08-25T11:34:21.998Z,101619.13
2022-08-25T11:37:01.034Z,101622.34
2022-08-25T11:39:44.600Z,101615.38
2022-08-25T11:42:45.849Z,101608.34
2022-08-25T11:45:54.555Z,101607.41
2022-08-25T11:48:27.365Z,101598.94
2022-08-25T11:51:11.852Z,101601.78
2022-08-25T11:53:45.012Z,101597.91
2022-08-25T11:56:40.705Z,101592.31
2022-08-25T11:59:08.322Z,101601.16
2022-08-25T12:02:00.944Z,101607.50
2022-08-25T12:04:44.147Z,101601.25
2022-08-25T12:07:22.820Z,101596.66
2022-08-25T12:09:53.960Z,101595.66
2022-08-25T12:12:41.772Z,101591.38
2022-08-25T12:15:32.538Z,101593.09
2022-08-25T12:18:15.306Z,101595.69
2022-08-25T12:21:02.607Z,101599.66
2022-08-25T12:23:34.843Z,101606.28
2022-08-25T12:26:28.692Z,101598.34
2022-08-25T12:29:11.782Z,101590.28
2022-08-25T12:31:57.261Z,101590.31
2022-08-25T12:34:54.513Z,101581.59
2022-08-25T12:37:23.955Z,101580.06
2022-08-25T12:39:50.387Z,101573.25
2022-08-25T12:42:30.100Z,101574.03
2022-08-25T12:45:20.791Z,101570.84
2022-08-25T12:47:49.951Z,101568.91
2022-08-25T12:50:43.219Z,101576.41
2022-08-25T12:53:15.625Z,101576.94
2022-08-25T12:55:54.673Z,101565.75
2022-08-25T12:58:28.547Z,101572.28
2022-08-25T13:01:35.393Z,101565.03
2022-08-25T13:04:14.904Z,101563.69
2022-08-25T13:07:00.910Z,101563.44
2022-08-25T13:09:58.723Z,101563.25
2022-08-25T13:12:34.234Z,101560.13
2022-08-25T13:15:01.153Z,101563.38
2022-08-25T13:17:33.688Z,101556.91
2022-08-25T13:20:20.416Z,101552.25
2022-08-25T13:22:55.269Z,101545.97
2022-08-25T13:25:32.195Z,101539.25
2022-08-25T13:28:04.022Z,101542.09
2022-08-25T13:30:36.535Z,101536.84
2022-08-25T13:33:23.935Z,101532.72
2022-08-25T13:36:13.366Z,101534.16
2022-08-25T13:38:40.115Z,101528.38
2022-08-25T13:41:09.595Z,101526.50
2022-08-25T13:43:38.518Z,101531.94
2022-08-25T13:46:06.069Z,101526.94
2022-08-25T13:48:39.522Z,101528.94
2022-08-25T13:51:23.444Z,101521.69
2022-08-25T13:53:53.449Z,101519.44
2022-08-25T13:56:41.567Z,101515.38
2022-08-25T13:59:41.783Z,101519.53
2022-08-25T14:02:09.805Z,101513.75
2022-08-25T14:04:51.176Z,101513.34
2022-08-25T14:07:21.314Z,101503.00
2022-08-25T14:09:49.595Z,101506.78
2022-08-25T14:12:33.958Z,101502.81
2022-08-25T14:15:10.013Z,101499.38
2022-08-25T14:17:40.982Z,101495.22
2022-08-25T14:20:19.865Z,101497.69
2022-08-25T14:22:46.562Z,101501.63
2022-08-25T14:25:13.343Z,101490.44
2022-08-25T14:28:05.354Z,101490.16
2022-08-25T14:30:35.358Z,101496.13
2022-08-25T14:33:04.476Z,101492.75
2022-08-25T14:35:31.479Z,101493.78
2022-08-25T14:37:58.671Z,101484.81
2022-08-25T14:40:25.792Z,101487.97
2022-08-25T14:42:52.358Z,101478.28
2022-08-25T14:45:19.329Z,101484.13
2022-08-25T14:47:49.795Z,101483.38
2022-08-25T14:50:20.987Z,101480.06
2022-08-25T14:52:48.262Z,101486.22
2022-08-25T14:55:30.785Z,101477.28
2022-08-25T14:58:00.268Z,101476.97
2022-08-25T15:00:27.953Z,101477.56
2022-08-25T15:02:54.852Z,101477.28
2022-08-25T15:05:28.420Z,101478.94
2022-08-25T15:08:33.420Z,101471.47
2022-08-25T15:11:00.502Z,101475.59
2022-08-25T15:13:27.547Z,101473.28
2022-08-25T15:15:55.293Z,101476.81
2022-08-25T15:18:28.011Z,101467.97
2022-08-25T15:20:54.577Z,101462.78
2022-08-25T15:23:21.433Z,101467.41
2022-08-25T15:25:52.734Z,101468.53
2022-08-25T15:28:22.290Z,101468.16
2022-08-25T15:30:49.891Z,101466.00
2022-08-25T15:33:17.393Z,101465.06
2022-08-25T15:35:43.938Z,101461.72
2022-08-25T15:38:11.988Z,101465.00
2022-08-25T15:40:39.674Z,101464.25
2022-08-25T15:43:06.954Z,101462.00
2022-08-25T15:45:36.115Z,101462.63
2022-08-25T15:48:09.573Z,101457.91
2022-08-25T15:50:36.921Z,101456.75
2022-08-25T15:53:07.078Z,101455.09
2022-08-25T15:55:39.116Z,101453.28
2022-08-25T15:58:06.874Z,101457.13
2022-08-25T16:00:35.349Z,101445.31
2022-08-25T16:03:02.125Z,101443.94
2022-08-25T16:05:29.461Z,101445.66
2022-08-25T16:07:56.771Z,101440.78
2022-08-25T16:10:25.243Z,101441.53
2022-08-25T16:12:51.743Z,101439.66
2022-08-25T16:15:18.324Z,101435.59
2022-08-25T16:17:51.217Z,101442.75
2022-08-25T16:20:18.282Z,101435.16
2022-08-25T16:22:45.121Z,101431.16
2022-08-25T16:25:11.681Z,101434.53
2022-08-25T16:27:39.235Z,101438.88
2022-08-25T16:30:08.199Z,101433.94
2022-08-25T16:32:35.012Z,101436.66
2022-08-25T16:35:02.865Z,101438.50
2022-08-25T16:37:29.891Z,101428.72
2022-08-25T16:39:57.075Z,101439.16
2022-08-25T16:42:24.301Z,101435.53
2022-08-25T16:44:53.940Z,101429.31
2022-08-25T16:47:25.137Z,101433.22
2022-08-25T16:49:54.070Z,101423.97
2022-08-25T16:52:40.616Z,101424.00
2022-08-25T16:55:14.340Z,101423.44
2022-08-25T16:57:43.841Z,101427.19
2022-08-25T17:00:13.822Z,101430.25
2022-08-25T17:02:42.105Z,101430.06
2022-08-25T17:05:10.701Z,101427.16
2022-08-25T17:07:37.732Z,101428.72
2022-08-25T17:10:05.800Z,101419.88
2022-08-25T17:12:32.772Z,101427.97
2022-08-25T17:14:59.276Z,101433.59
2022-08-25T17:17:27.099Z,101436.97
2022-08-25T17:19:54.866Z,101441.72
2022-08-25T17:22:22.347Z,101447.06
2022-08-25T17:24:59.274Z,101451.72
2022-08-25T17:27:28.079Z,101451.91
2022-08-25T17:29:55.396Z,101457.25
2022-08-25T17:32:28.693Z,101456.41
2022-08-25T17:34:57.434Z,101461.81
2022-08-25T17:37:24.531Z,101459.25
2022-08-25T17:40:02.509Z,101463.16
2022-08-25T17:42:30.320Z,101465.09
2022-08-25T17:44:57.876Z,101466.78
2022-08-25T17:47:24.478Z,101470.44
2022-08-25T17:49:50.918Z,101461.31
2022-08-25T17:52:17.453Z,101464.41
2022-08-25T17:54:43.958Z,101455.91
2022-08-25T17:57:10.780Z,101459.66
2022-08-25T17:59:40.451Z,101462.59
2022-08-25T18:02:08.182Z,101464.50
2022-08-25T18:04:37.983Z,101461.13
2022-08-25T18:07:07.663Z,101468.50
2022-08-25T18:09:34.393Z,101465.75
2022-08-25T18:12:00.816Z,101465.56
2022-08-25T18:14:27.341Z,101473.94
2022-08-25T18:16:54.076Z,101473.06
2022-08-25T18:19:20.917Z,101473.97
2022-08-25T18:21:47.592Z,101477.66
2022-08-25T18:24:14.105Z,101481.06
2022-08-25T18:26:40.819Z,101473.38
2022-08-25T18:29:07.361Z,101480.22
2022-08-25T18:31:34.206Z,101479.84
2022-08-25T18:34:04.998Z,101485.72
2022-08-25T18:36:32.408Z,101492.69
2022-08-25T18:39:24.900Z,101482.91
2022-08-25T18:41:51.741Z,101487.81
2022-08-25T18:44:18.391Z,101495.09
2022-08-25T18:46:45.578Z,101496.44
2022-08-25T18:49:15.792Z,101501.91
2022-08-25T18:51:44.706Z,101506.78
2022-08-25T18:54:23.343Z,101507.50
2022-08-25T18:56:52.334Z,101503.91
2022-08-25T18:59:19.583Z,101500.75
2022-08-25T19:01:46.191Z,101511.41
2022-08-25T19:04:14.767Z,101505.72
2022-08-25T19:06:43.898Z,101517.34
2022-08-25T19:09:10.774Z,101521.38
2022-08-25T19:11:38.119Z,101518.84
2022-08-25T19:14:08.072Z,101520.94
2022-08-25T19:16:42.415Z,101535.41
2022-08-25T19:19:13.163Z,101548.75
2022-08-25T19:21:41.968Z,101545.78
2022-08-25T19:24:10.970Z,101545.97
2022-08-25T19:26:38.543Z,101542.47
2022-08-25T19:29:09.334Z,101543.69
2022-08-25T19:31:36.714Z,101557.09
2022-08-25T19:34:04.691Z,101559.53
2022-08-25T19:36:31.430Z,101562.06
2022-08-25T19:39:01.245Z,101555.91
2022-08-25T19:41:31.133Z,101561.38
2022-08-25T19:43:58.547Z,101553.66
2022-08-25T19:46:32.024Z,101571.31
2022-08-25T19:49:07.211Z,101580.50
2022-08-25T19:51:39.638Z,101588.16
2022-08-25T19:54:08.944Z,101588.06
2022-08-25T19:56:44.019Z,101587.41
2022-08-25T19:59:40.747Z,101593.63
2022-08-25T20:02:11.203Z,101589.00
2022-08-25T20:04:37.744Z,101587.69
2022-08-25T20:07:04.622Z,101593.25
2022-08-25T20:09:39.395Z,101596.13
2022-08-25T20:12:10.263Z,101599.56
2022-08-25T20:14:37.066Z,101605.38
2022-08-25T20:17:14.657Z,101596.53
2022-08-25T20:19:54.067Z,101599.34
2022-08-25T20:22:25.847Z,101606.47
2022-08-25T20:24:55.757Z,101612.88
2022-08-25T20:27:31.311Z,101613.22
2022-08-25T20:30:02.618Z,101610.09
2022-08-25T20:32:31.356Z,101610.41
2022-08-25T20:34:57.839Z,101611.81
2022-08-25T20:37:25.789Z,101617.72
2022-08-25T20:39:52.717Z,101615.91
2022-08-25T20:42:19.327Z,101626.16
2022-08-25T20:44:47.058Z,101630.72
2022-08-25T20:47:15.669Z,101636.66
2022-08-25T20:49:44.528Z,101638.66
2022-08-25T20:52:11.975Z,101636.97
2022-08-25T20:54:40.347Z,101645.78
2022-08-25T20:57:08.123Z,101640.22
2022-08-25T20:59:34.687Z,101645.56
2022-08-25T21:02:01.523Z,101639.81
2022-08-25T21:04:29.805Z,101645.91
2022-08-25T21:07:01.108Z,101656.75
2022-08-25T21:09:28.549Z,101648.59
2022-08-25T21:11:56.867Z,101659.06
2022-08-25T21:14:24.278Z,101654.97
2022-08-25T21:16:52.770Z,101657.06
2022-08-25T21:19:26.783Z,101664.16
2022-08-25T21:21:59.592Z,101663.13
2022-08-25T21:24:28.088Z,101661.75
2022-08-25T21:26:57.926Z,101660.09
2022-08-25T21:29:28.670Z,101668.00
2022-08-25T21:31:56.016Z,101676.22
2022-08-25T21:34:22.442Z,101681.94
2022-08-25T21:36:50.763Z,101671.91
2022-08-25T21:39:17.272Z,101684.94
2022-08-25T21:41:45.614Z,101682.44
2022-08-25T21:44:12.987Z,101688.16
2022-08-25T21:46:53.806Z,101694.50
2022-08-25T21:49:21.775Z,101686.34
2022-08-25T21:51:51.006Z,101692.50
2022-08-25T21:54:26.146Z,101684.88
2022-08-25T21:56:55.935Z,101692.03
2022-08-25T21:59:25.191Z,101699.13
2022-08-25T22:01:57.470Z,101694.84
2022-08-25T22:04:24.501Z,101686.28
2022-08-25T22:06:54.998Z,101696.06
2022-08-25T22:09:24.648Z,101697.03
2022-08-25T22:11:52.295Z,101696.47
2022-08-25T22:14:23.710Z,101693.41
2022-08-25T22:16:51.985Z,101697.88
2022-08-25T22:19:18.568Z,101699.84
2022-08-25T22:21:45.654Z,101697.44
2022-08-25T22:24:12.261Z,101693.91
2022-08-25T22:26:39.907Z,101699.28
2022-08-25T22:29:06.644Z,101692.50
2022-08-25T22:31:34.595Z,101683.72
2022-08-25T22:34:01.285Z,101691.53
2022-08-25T22:36:34.981Z,101696.84
2022-08-25T22:39:01.814Z,101692.38
2022-08-25T22:41:31.472Z,101691.47
2022-08-25T22:44:00.107Z,101697.69
2022-08-25T22:46:35.670Z,101703.84
2022-08-25T22:49:02.197Z,101704.41
2022-08-25T22:51:32.509Z,101708.03
2022-08-25T22:54:00.592Z,101704.00
2022-08-25T22:56:34.324Z,101710.06
2022-08-25T22:59:06.585Z,101709.41
2022-08-25T23:01:33.540Z,101700.22
2022-08-25T23:04:04.947Z,101703.00
2022-08-25T23:06:34.431Z,101703.66
2022-08-25T23:09:01.470Z,101707.84
2022-08-25T23:11:28.848Z,101717.44
2022-08-25T23:13:57.265Z,101707.59
2022-08-25T23:16:25.251Z,101719.75
2022-08-25T23:18:53.025Z,101716.22
2022-08-25T23:21:41.221Z,101713.81
2022-08-25T23:24:10.989Z,101714.06
2022-08-25T23:26:42.490Z,101712.69
2022-08-25T23:29:18.821Z,101721.72
2022-08-25T23:31:49.635Z,101728.06
2022-08-25T23:34:16.494Z,101719.28
2022-08-25T23:36:44.653Z,101723.56
2022-08-25T23:39:11.321Z,101716.88
2022-08-25T23:41:38.368Z,101720.25
2022-08-25T23:44:09.350Z,101720.13
2022-08-25T23:46:38.308Z,101714.63
2022-08-25T23:49:08.455Z,101714.53
2022-08-25T23:51:38.103Z,101714.53
2022-08-25T23:54:09.296Z,101720.78
2022-08-25T23:56:44.783Z,101725.06
2022-08-25T23:59:24.562Z,101723.31
